Yong An 1 — 3FLS5 — position and weather

sailwx.info

Track history (hours):
 
Tides and Currents Weather Stations Pressure Air Temp Water Temp Dewpoint Dewpoint Depression Visibility Wind Speed Wind Dir Waves Ship Positions

Yong An 1

Last reported at 2018-Jul-17 12:09 UTC. Time now 2018-Jul-17 15:06 UTC.
Position N 36°58' W 076°25'.

Length 228 m; draft 10.7 m.

Type: Cargo ship. MMSI: 374092000.

Date/timePositionNaut miles runAvg speedWind from/ knotsBaromVisibWave heightAir tempDewpointWater temp
2018-Jul-17 12:09N 36°58' W 076°25'0 0.0
2018-Jul-17 11:15N 36°58' W 076°25'0 0.0
2018-Jul-17 10:51N 36°58' W 076°25'0 0.0
2018-Jul-17 10:21N 36°58' W 076°25'0 0.0
2018-Jul-17 09:09N 36°58' W 076°25'0 0.0
2018-Jul-17 08:39N 36°58' W 076°25'0 0.0
2018-Jul-17 08:09N 36°58' W 076°25'0 0.0
2018-Jul-17 07:51N 36°58' W 076°25'0 0.0
2018-Jul-17 05:57N 36°58' W 076°25'0 0.0
2018-Jul-17 05:27N 36°58' W 076°25'0 0.0
2018-Jul-17 04:21N 36°58' W 076°25'0 0.0
2018-Jul-16 23:21N 36°58' W 076°25'0 0.0
2018-Jul-16 20:57N 36°58' W 076°25'0 0.0
2018-Jul-16 19:51N 36°58' W 076°25'0 0.0
2018-Jul-16 19:09N 36°58' W 076°25'0 0.0
2018-Jul-16 18:51N 36°58' W 076°25'0 0.0
2018-Jul-16 17:21N 36°58' W 076°25'0 0.0
2018-Jul-16 14:21N 36°58' W 076°25'0 0.0
2018-Jul-16 13:51N 36°58' W 076°25'0 0.0
2018-Jul-16 13:15N 36°58' W 076°25'0 0.0
2018-Jul-16 12:57N 36°58' W 076°25'0 0.0
2018-Jul-16 12:27N 36°58' W 076°25'0 0.0
2018-Jul-16 11:39N 36°58' W 076°25'0 0.0
2018-Jul-16 11:09N 36°58' W 076°25'1 0.9
2018-Jul-16 10:36N 36°57' W 076°25'1 4.5
2018-Jul-16 10:28N 36°57' W 076°24'16 5.7
2018-Jul-16 07:35N 37°06' W 076°07'10 0.6
2018-Jul-15 13:57N 37°15' W 076°07'0 0.1
2018-Jul-15 13:21N 37°15' W 076°07'0 0.1
2018-Jul-15 12:57N 37°15' W 076°07'0 0.1
2018-Jul-15 12:21N 37°15' W 076°07'0 0.0
2018-Jul-15 11:57N 37°15' W 076°07'0 0.0
2018-Jul-15 11:21N 37°15' W 076°07'0 0.0
2018-Jul-15 10:51N 37°15' W 076°07'0 0.1
2018-Jul-15 09:21N 37°15' W 076°07'0 0.1
2018-Jul-15 08:57N 37°15' W 076°07'0 0.1
2018-Jul-15 08:15N 37°15' W 076°06'0 0.1
2018-Jul-15 07:51N 37°15' W 076°07'0 0.2
2018-Jul-15 07:27N 37°16' W 076°07'0 0.1
2018-Jul-15 05:39N 37°16' W 076°07'0 0.0
2018-Jul-15 05:21N 37°16' W 076°07'0 0.0
2018-Jul-15 04:15N 37°16' W 076°07'0 0.3
2018-Jul-15 03:57N 37°16' W 076°07'0 0.0
2018-Jul-15 03:27N 37°16' W 076°07'0 0.0
2018-Jul-15 02:57N 37°16' W 076°07'0 0.0
2018-Jul-15 02:27N 37°16' W 076°07'0 0.1
2018-Jul-15 01:57N 37°16' W 076°07'0 0.1
2018-Jul-15 01:27N 37°16' W 076°07'0 0.2
2018-Jul-15 01:00N 37°15' W 076°07'0 0.0
2018-Jul-14 13:39N 37°15' W 076°07'0 0.2
2018-Jul-14 13:27N 37°15' W 076°07'0 0.2
2018-Jul-14 12:57N 37°15' W 076°07'0 0.0
2018-Jul-14 12:27N 37°15' W 076°07'0 0.0
2018-Jul-14 11:57N 37°15' W 076°07'0 0.0
2018-Jul-14 11:21N 37°15' W 076°07'0 0.0
2018-Jul-14 10:57N 37°15' W 076°07'0 0.0
2018-Jul-14 10:27N 37°15' W 076°07'0 0.0
2018-Jul-14 09:27N 37°15' W 076°07'0 0.0
2018-Jul-14 08:57N 37°15' W 076°07'0 0.0
2018-Jul-14 08:27N 37°15' W 076°07'0 0.1
2018-Jul-14 05:51N 37°15' W 076°07'0 0.1
2018-Jul-14 04:39N 37°16' W 076°07'0 0.0
2018-Jul-14 04:27N 37°16' W 076°07'0 0.0
2018-Jul-14 03:51N 37°16' W 076°07'0 0.0
2018-Jul-14 02:33N 37°16' W 076°07'0 0.0
2018-Jul-14 02:21N 37°16' W 076°07'0 0.0
2018-Jul-14 01:57N 37°16' W 076°07'0 0.0
2018-Jul-13 01:15N 37°16' W 076°07'0 0.0
2018-Jul-12 05:57N 37°15' W 076°07'21 1.7
2018-Jul-11 18:08N 36°58' W 076°20'1 8.7
2018-Jul-11 18:00N 36°57' W 076°20'4 7.8
2018-Jul-11 17:30N 36°53' W 076°20'0 0.2
2018-Jul-11 16:59N 36°53' W 076°20'0 0.0
2018-Jul-11 16:29N 36°53' W 076°20'0 0.0
2018-Jul-11 15:59N 36°53' W 076°20'0 0.0
2018-Jul-11 15:29N 36°53' W 076°20'0 0.0
2018-Jul-11 14:59N 36°53' W 076°20'0 0.0
2018-Jul-11 14:29N 36°53' W 076°20'0 0.0
2018-Jul-11 13:59N 36°53' W 076°20'0 0.0
2018-Jul-11 13:29N 36°53' W 076°20'0 0.0
2018-Jul-11 12:59N 36°53' W 076°20'0 0.0
2018-Jul-11 12:29N 36°53' W 076°20'0 0.0
2018-Jul-11 11:59N 36°53' W 076°20'0 0.0
2018-Jul-11 11:29N 36°53' W 076°20'0 0.0
2018-Jul-11 10:59N 36°53' W 076°20'0 0.0
2018-Jul-11 10:29N 36°53' W 076°20'0 0.0
2018-Jul-11 09:59N 36°53' W 076°20'0 0.0
2018-Jul-11 09:17N 36°53' W 076°20'0 0.0
2018-Jul-11 08:53N 36°53' W 076°20'0 0.0
2018-Jul-11 08:26N 36°53' W 076°20'0 0.0
2018-Jul-11 07:56N 36°53' W 076°20'0 0.0
2018-Jul-11 07:26N 36°53' W 076°20'0 0.0
2018-Jul-11 06:50N 36°53' W 076°20'0 0.0
2018-Jul-11 06:29N 36°53' W 076°20'0 0.0
2018-Jul-11 04:17N 36°53' W 076°20'0 0.0
2018-Jul-11 03:23N 36°53' W 076°20'0 0.0
2018-Jul-11 02:29N 36°53' W 076°20'0 0.0
2018-Jul-11 01:56N 36°53' W 076°20'0 0.0
2018-Jul-11 01:20N 36°53' W 076°20'0 0.0
2018-Jul-11 00:47N 36°53' W 076°20'0 0.0
2018-Jul-11 00:29N 36°53' W 076°20'0 0.0
2018-Jul-10 23:56N 36°53' W 076°20'0 0.0
2018-Jul-10 23:26N 36°53' W 076°20'0 0.0
2018-Jul-10 22:59N 36°53' W 076°20'0 0.0
2018-Jul-10 22:26N 36°53' W 076°20'0 0.0
2018-Jul-10 21:56N 36°53' W 076°20'0 0.0
2018-Jul-10 21:29N 36°53' W 076°20'0 0.0
2018-Jul-10 20:47N 36°53' W 076°20'0 0.0
2018-Jul-10 20:23N 36°53' W 076°20'0 0.0
2018-Jul-10 19:47N 36°53' W 076°20'0 0.0
2018-Jul-10 19:26N 36°53' W 076°20'0 0.0
2018-Jul-10 18:41N 36°53' W 076°20'0 0.0
2018-Jul-10 18:26N 36°53' W 076°20'0 0.0
2018-Jul-10 17:53N 36°53' W 076°20'0 0.0
2018-Jul-10 16:23N 36°53' W 076°20'0 0.0
2018-Jul-10 15:59N 36°53' W 076°20'0 0.0
2018-Jul-10 15:02N 36°53' W 076°20'0 0.0
2018-Jul-10 14:59N 36°53' W 076°20'0 0.0
2018-Jul-10 14:26N 36°53' W 076°20'0 0.0
2018-Jul-10 12:59N 36°53' W 076°20'0 0.0
2018-Jul-10 12:20N 36°53' W 076°20'0 0.0
2018-Jul-10 11:53N 36°53' W 076°20'0 0.0
2018-Jul-10 11:20N 36°53' W 076°20'0 0.0
2018-Jul-10 10:59N 36°53' W 076°20'0 0.0
2018-Jul-10 10:26N 36°53' W 076°20'0 0.0
2018-Jul-10 09:56N 36°53' W 076°20'0 0.0
2018-Jul-10 08:53N 36°53' W 076°20'0 0.0
2018-Jul-10 08:26N 36°53' W 076°20'0 0.0
2018-Jul-10 07:59N 36°53' W 076°20'0 0.0
2018-Jul-10 07:11N 36°53' W 076°20'0 0.0
2018-Jul-10 06:56N 36°53' W 076°20'0 0.0
2018-Jul-10 06:26N 36°53' W 076°20'0 0.0
2018-Jul-10 05:59N 36°53' W 076°20'0 0.0
2018-Jul-10 05:29N 36°53' W 076°20'0 0.0
2018-Jul-10 04:56N 36°53' W 076°20'0 0.0
2018-Jul-10 04:29N 36°53' W 076°20'0 0.0
2018-Jul-10 03:56N 36°53' W 076°20'0 0.0
2018-Jul-10 03:29N 36°53' W 076°20'0 0.0
2018-Jul-10 02:59N 36°53' W 076°20'0 0.0
2018-Jul-10 02:23N 36°53' W 076°20'0 0.7
2018-Jul-10 01:59N 36°53' W 076°20'3 4.9
2018-Jul-10 01:28N 36°55' W 076°20'4 8.0
2018-Jul-10 00:59N 36°59' W 076°20'1 2.5
2018-Jul-10 00:29N 36°58' W 076°20'15 7.6
2018-Jul-09 22:27N 36°59' W 076°01'14 1.6
2018-Jul-09 13:37N 37°12' W 076°05'0 0.1
2018-Jul-09 13:25N 37°12' W 076°05'0 0.0
2018-Jul-09 12:58N 37°12' W 076°05'0 0.2
2018-Jul-09 12:28N 37°13' W 076°05'0 0.1
2018-Jul-09 11:55N 37°13' W 076°05'0 0.1
2018-Jul-09 11:28N 37°13' W 076°05'0 0.0
2018-Jul-09 10:55N 37°13' W 076°05'0 0.0
2018-Jul-09 10:28N 37°13' W 076°05'0 0.1
2018-Jul-09 09:58N 37°13' W 076°05'0 0.0
2018-Jul-09 09:28N 37°13' W 076°05'0 0.1
2018-Jul-09 08:58N 37°12' W 076°05'0 0.1
2018-Jul-09 08:28N 37°12' W 076°05'0 0.0
2018-Jul-09 07:58N 37°12' W 076°05'0 0.0
2018-Jul-09 07:19N 37°12' W 076°05'0 0.0
2018-Jul-09 06:46N 37°12' W 076°05'0 0.0
2018-Jul-09 06:25N 37°12' W 076°05'0 0.0
2018-Jul-09 05:46N 37°12' W 076°05'0 0.0
2018-Jul-09 05:25N 37°12' W 076°05'0 0.0
2018-Jul-09 04:58N 37°12' W 076°05'0 0.0
2018-Jul-09 04:22N 37°12' W 076°05'0 0.0
2018-Jul-09 03:22N 37°12' W 076°05'0 0.0
2018-Jul-09 02:58N 37°12' W 076°05'0 0.0
2018-Jul-09 02:28N 37°12' W 076°05'0 0.0
2018-Jul-09 01:58N 37°12' W 076°05'0 0.0
2018-Jul-08 12:25N 37°12' W 076°05'  
Track history (hours):
 
Tides and Currents Weather Stations Pressure Air Temp Water Temp Dewpoint Dewpoint Depression Visibility Wind Speed Wind Dir Waves Ship Positions

Yong An 1

Last reported at 2018-Jul-17 12:09 UTC. Time now 2018-Jul-17 15:06 UTC.
Position N 36°58' W 076°25'.

Length 228 m; draft 10.7 m.

Type: Cargo ship. MMSI: 374092000.

Date/timePositionNaut miles runAvg speedWind from/ knotsBaromVisibWave heightAir tempDewpointWater temp
2018-Jul-17 12:09N 36°58' W 076°25'0 0.0
2018-Jul-17 11:15N 36°58' W 076°25'0 0.0
2018-Jul-17 10:51N 36°58' W 076°25'0 0.0
2018-Jul-17 10:21N 36°58' W 076°25'0 0.0
2018-Jul-17 09:09N 36°58' W 076°25'0 0.0
2018-Jul-17 08:39N 36°58' W 076°25'0 0.0
2018-Jul-17 08:09N 36°58' W 076°25'0 0.0
2018-Jul-17 07:51N 36°58' W 076°25'0 0.0
2018-Jul-17 05:57N 36°58' W 076°25'0 0.0
2018-Jul-17 05:27N 36°58' W 076°25'0 0.0
2018-Jul-17 04:21N 36°58' W 076°25'0 0.0
2018-Jul-16 23:21N 36°58' W 076°25'0 0.0
2018-Jul-16 20:57N 36°58' W 076°25'0 0.0
2018-Jul-16 19:51N 36°58' W 076°25'0 0.0
2018-Jul-16 19:09N 36°58' W 076°25'0 0.0
2018-Jul-16 18:51N 36°58' W 076°25'0 0.0
2018-Jul-16 17:21N 36°58' W 076°25'0 0.0
2018-Jul-16 14:21N 36°58' W 076°25'0 0.0
2018-Jul-16 13:51N 36°58' W 076°25'0 0.0
2018-Jul-16 13:15N 36°58' W 076°25'0 0.0
2018-Jul-16 12:57N 36°58' W 076°25'0 0.0
2018-Jul-16 12:27N 36°58' W 076°25'0 0.0
2018-Jul-16 11:39N 36°58' W 076°25'0 0.0
2018-Jul-16 11:09N 36°58' W 076°25'1 0.9
2018-Jul-16 10:36N 36°57' W 076°25'1 4.5
2018-Jul-16 10:28N 36°57' W 076°24'16 5.7
2018-Jul-16 07:35N 37°06' W 076°07'10 0.6
2018-Jul-15 13:57N 37°15' W 076°07'0 0.1
2018-Jul-15 13:21N 37°15' W 076°07'0 0.1
2018-Jul-15 12:57N 37°15' W 076°07'0 0.1
2018-Jul-15 12:21N 37°15' W 076°07'0 0.0
2018-Jul-15 11:57N 37°15' W 076°07'0 0.0
2018-Jul-15 11:21N 37°15' W 076°07'0 0.0
2018-Jul-15 10:51N 37°15' W 076°07'0 0.1
2018-Jul-15 09:21N 37°15' W 076°07'0 0.1
2018-Jul-15 08:57N 37°15' W 076°07'0 0.1
2018-Jul-15 08:15N 37°15' W 076°06'0 0.1
2018-Jul-15 07:51N 37°15' W 076°07'0 0.2
2018-Jul-15 07:27N 37°16' W 076°07'0 0.1
2018-Jul-15 05:39N 37°16' W 076°07'0 0.0
2018-Jul-15 05:21N 37°16' W 076°07'0 0.0
2018-Jul-15 04:15N 37°16' W 076°07'0 0.3
2018-Jul-15 03:57N 37°16' W 076°07'0 0.0
2018-Jul-15 03:27N 37°16' W 076°07'0 0.0
2018-Jul-15 02:57N 37°16' W 076°07'0 0.0
2018-Jul-15 02:27N 37°16' W 076°07'0 0.1
2018-Jul-15 01:57N 37°16' W 076°07'0 0.1
2018-Jul-15 01:27N 37°16' W 076°07'0 0.2
2018-Jul-15 01:00N 37°15' W 076°07'0 0.0
2018-Jul-14 13:39N 37°15' W 076°07'0 0.2
2018-Jul-14 13:27N 37°15' W 076°07'0 0.2
2018-Jul-14 12:57N 37°15' W 076°07'0 0.0
2018-Jul-14 12:27N 37°15' W 076°07'0 0.0
2018-Jul-14 11:57N 37°15' W 076°07'0 0.0
2018-Jul-14 11:21N 37°15' W 076°07'0 0.0
2018-Jul-14 10:57N 37°15' W 076°07'0 0.0
2018-Jul-14 10:27N 37°15' W 076°07'0 0.0
2018-Jul-14 09:27N 37°15' W 076°07'0 0.0
2018-Jul-14 08:57N 37°15' W 076°07'0 0.0
2018-Jul-14 08:27N 37°15' W 076°07'0 0.1
2018-Jul-14 05:51N 37°15' W 076°07'0 0.1
2018-Jul-14 04:39N 37°16' W 076°07'0 0.0
2018-Jul-14 04:27N 37°16' W 076°07'0 0.0
2018-Jul-14 03:51N 37°16' W 076°07'0 0.0
2018-Jul-14 02:33N 37°16' W 076°07'0 0.0
2018-Jul-14 02:21N 37°16' W 076°07'0 0.0
2018-Jul-14 01:57N 37°16' W 076°07'0 0.0
2018-Jul-13 01:15N 37°16' W 076°07'0 0.0
2018-Jul-12 05:57N 37°15' W 076°07'21 1.7
2018-Jul-11 18:08N 36°58' W 076°20'1 8.7
2018-Jul-11 18:00N 36°57' W 076°20'4 7.8
2018-Jul-11 17:30N 36°53' W 076°20'0 0.2
2018-Jul-11 16:59N 36°53' W 076°20'0 0.0
2018-Jul-11 16:29N 36°53' W 076°20'0 0.0
2018-Jul-11 15:59N 36°53' W 076°20'0 0.0
2018-Jul-11 15:29N 36°53' W 076°20'0 0.0
2018-Jul-11 14:59N 36°53' W 076°20'0 0.0
2018-Jul-11 14:29N 36°53' W 076°20'0 0.0
2018-Jul-11 13:59N 36°53' W 076°20'0 0.0
2018-Jul-11 13:29N 36°53' W 076°20'0 0.0
2018-Jul-11 12:59N 36°53' W 076°20'0 0.0
2018-Jul-11 12:29N 36°53' W 076°20'0 0.0
2018-Jul-11 11:59N 36°53' W 076°20'0 0.0
2018-Jul-11 11:29N 36°53' W 076°20'0 0.0
2018-Jul-11 10:59N 36°53' W 076°20'0 0.0
2018-Jul-11 10:29N 36°53' W 076°20'0 0.0
2018-Jul-11 09:59N 36°53' W 076°20'0 0.0
2018-Jul-11 09:17N 36°53' W 076°20'0 0.0
2018-Jul-11 08:53N 36°53' W 076°20'0 0.0
2018-Jul-11 08:26N 36°53' W 076°20'0 0.0
2018-Jul-11 07:56N 36°53' W 076°20'0 0.0
2018-Jul-11 07:26N 36°53' W 076°20'0 0.0
2018-Jul-11 06:50N 36°53' W 076°20'0 0.0
2018-Jul-11 06:29N 36°53' W 076°20'0 0.0
2018-Jul-11 04:17N 36°53' W 076°20'0 0.0
2018-Jul-11 03:23N 36°53' W 076°20'0 0.0
2018-Jul-11 02:29N 36°53' W 076°20'0 0.0
2018-Jul-11 01:56N 36°53' W 076°20'0 0.0
2018-Jul-11 01:20N 36°53' W 076°20'0 0.0
2018-Jul-11 00:47N 36°53' W 076°20'0 0.0
2018-Jul-11 00:29N 36°53' W 076°20'0 0.0
2018-Jul-10 23:56N 36°53' W 076°20'0 0.0
2018-Jul-10 23:26N 36°53' W 076°20'0 0.0
2018-Jul-10 22:59N 36°53' W 076°20'0 0.0
2018-Jul-10 22:26N 36°53' W 076°20'0 0.0
2018-Jul-10 21:56N 36°53' W 076°20'0 0.0
2018-Jul-10 21:29N 36°53' W 076°20'0 0.0
2018-Jul-10 20:47N 36°53' W 076°20'0 0.0
2018-Jul-10 20:23N 36°53' W 076°20'0 0.0
2018-Jul-10 19:47N 36°53' W 076°20'0 0.0
2018-Jul-10 19:26N 36°53' W 076°20'0 0.0
2018-Jul-10 18:41N 36°53' W 076°20'0 0.0
2018-Jul-10 18:26N 36°53' W 076°20'0 0.0
2018-Jul-10 17:53N 36°53' W 076°20'0 0.0
2018-Jul-10 16:23N 36°53' W 076°20'0 0.0
2018-Jul-10 15:59N 36°53' W 076°20'0 0.0
2018-Jul-10 15:02N 36°53' W 076°20'0 0.0
2018-Jul-10 14:59N 36°53' W 076°20'0 0.0
2018-Jul-10 14:26N 36°53' W 076°20'0 0.0
2018-Jul-10 12:59N 36°53' W 076°20'0 0.0
2018-Jul-10 12:20N 36°53' W 076°20'0 0.0
2018-Jul-10 11:53N 36°53' W 076°20'0 0.0
2018-Jul-10 11:20N 36°53' W 076°20'0 0.0
2018-Jul-10 10:59N 36°53' W 076°20'0 0.0
2018-Jul-10 10:26N 36°53' W 076°20'0 0.0
2018-Jul-10 09:56N 36°53' W 076°20'0 0.0
2018-Jul-10 08:53N 36°53' W 076°20'0 0.0
2018-Jul-10 08:26N 36°53' W 076°20'0 0.0
2018-Jul-10 07:59N 36°53' W 076°20'0 0.0
2018-Jul-10 07:11N 36°53' W 076°20'0 0.0
2018-Jul-10 06:56N 36°53' W 076°20'0 0.0
2018-Jul-10 06:26N 36°53' W 076°20'0 0.0
2018-Jul-10 05:59N 36°53' W 076°20'0 0.0
2018-Jul-10 05:29N 36°53' W 076°20'0 0.0
2018-Jul-10 04:56N 36°53' W 076°20'0 0.0
2018-Jul-10 04:29N 36°53' W 076°20'0 0.0
2018-Jul-10 03:56N 36°53' W 076°20'0 0.0
2018-Jul-10 03:29N 36°53' W 076°20'0 0.0
2018-Jul-10 02:59N 36°53' W 076°20'0 0.0
2018-Jul-10 02:23N 36°53' W 076°20'0 0.7
2018-Jul-10 01:59N 36°53' W 076°20'3 4.9
2018-Jul-10 01:28N 36°55' W 076°20'4 8.0
2018-Jul-10 00:59N 36°59' W 076°20'1 2.5
2018-Jul-10 00:29N 36°58' W 076°20'15 7.6
2018-Jul-09 22:27N 36°59' W 076°01'14 1.6
2018-Jul-09 13:37N 37°12' W 076°05'0 0.1
2018-Jul-09 13:25N 37°12' W 076°05'0 0.0
2018-Jul-09 12:58N 37°12' W 076°05'0 0.2
2018-Jul-09 12:28N 37°13' W 076°05'0 0.1
2018-Jul-09 11:55N 37°13' W 076°05'0 0.1
2018-Jul-09 11:28N 37°13' W 076°05'0 0.0
2018-Jul-09 10:55N 37°13' W 076°05'0 0.0
2018-Jul-09 10:28N 37°13' W 076°05'0 0.1
2018-Jul-09 09:58N 37°13' W 076°05'0 0.0
2018-Jul-09 09:28N 37°13' W 076°05'0 0.1
2018-Jul-09 08:58N 37°12' W 076°05'0 0.1
2018-Jul-09 08:28N 37°12' W 076°05'0 0.0
2018-Jul-09 07:58N 37°12' W 076°05'0 0.0
2018-Jul-09 07:19N 37°12' W 076°05'0 0.0
2018-Jul-09 06:46N 37°12' W 076°05'0 0.0
2018-Jul-09 06:25N 37°12' W 076°05'0 0.0
2018-Jul-09 05:46N 37°12' W 076°05'0 0.0
2018-Jul-09 05:25N 37°12' W 076°05'0 0.0
2018-Jul-09 04:58N 37°12' W 076°05'0 0.0
2018-Jul-09 04:22N 37°12' W 076°05'0 0.0
2018-Jul-09 03:22N 37°12' W 076°05'0 0.0
2018-Jul-09 02:58N 37°12' W 076°05'0 0.0
2018-Jul-09 02:28N 37°12' W 076°05'0 0.0
2018-Jul-09 01:58N 37°12' W 076°05'0 0.0
2018-Jul-08 12:25N 37°12' W 076°05'  

Dump ship's entire track history